Time;durP1;ratioP1;P1;durP2;ratioP2;P2;SDS_P1;SDS_P2;PMS_P1;PMS_P2;Temp;Humidity;BMP_temperature;BMP_pressure;BME280_temperature;BME280_humidity;BME280_pressure;Samples;Min_cycle;Max_cycle;Signal;HPM_P1;HPM_P2
2023/09/12 00:00:23;;;;;;;5.53;5.03;;;;;;;;;;4990195;28;20421;-78
2023/09/12 00:02:49;;;;;;;4.78;4.38;;;;;;;;;;4981703;28;20026;-78
2023/09/12 00:05:15;;;;;;;4.80;4.40;;;;;;;;;;4978674;28;20026;-76
2023/09/12 00:07:41;;;;;;;4.32;4.03;;;;;;;;;;4980108;28;20031;-78
2023/09/12 00:10:07;;;;;;;4.50;4.10;;;;;;;;;;4979806;28;20393;-79
2023/09/12 00:12:33;;;;;;;4.68;4.28;;;;;;;;;;4997169;28;20623;-78
2023/09/12 00:15:00;;;;;;;4.22;3.92;;;;;;;;;;5003939;28;20026;-78
2023/09/12 00:17:26;;;;;;;4.57;4.18;;;;;;;;;;5009784;28;20084;-79
2023/09/12 00:19:52;;;;;;;4.13;3.83;;;;;;;;;;5006603;28;20023;-81
2023/09/12 00:22:19;;;;;;;4.00;3.60;;;;;;;;;;5005476;28;20031;-81
2023/09/12 00:24:45;;;;;;;4.53;4.13;;;;;;;;;;5007541;28;20057;-81
2023/09/12 00:27:11;;;;;;;4.03;3.70;;;;;;;;;;5000925;28;20043;-79
2023/09/12 00:29:37;;;;;;;3.70;3.40;;;;;;;;;;5007884;28;20038;-80
2023/09/12 00:32:03;;;;;;;3.58;3.28;;;;;;;;;;5008362;28;20064;-79
2023/09/12 00:34:29;;;;;;;3.30;3.10;;;;;;;;;;5008433;28;20051;-81
2023/09/12 00:36:55;;;;;;;3.97;3.67;;;;;;;;;;4993302;28;20046;-80
2023/09/12 00:39:21;;;;;;;4.18;3.85;;;;;;;;;;5007821;28;20031;-80
2023/09/12 00:41:47;;;;;;;3.80;3.50;;;;;;;;;;5007513;28;20046;-81
2023/09/12 00:44:13;;;;;;;3.63;3.33;;;;;;;;;;5024273;28;20029;-79
2023/09/12 00:46:40;;;;;;;3.35;3.15;;;;;;;;;;5027731;28;20030;-80
2023/09/12 00:49:07;;;;;;;3.20;3.00;;;;;;;;;;5021806;28;20557;-78
2023/09/12 00:51:33;;;;;;;3.17;2.97;;;;;;;;;;5025895;28;20018;-78
2023/09/12 00:54:00;;;;;;;3.95;3.65;;;;;;;;;;5007990;28;20042;-81
2023/09/12 00:56:26;;;;;;;3.47;3.22;;;;;;;;;;5005620;28;20082;-79
2023/09/12 00:58:53;;;;;;;3.90;3.60;;;;;;;;;;5007411;28;20022;-81
2023/09/12 01:01:20;;;;;;;3.65;3.35;;;;;;;;;;5008830;28;20026;-80
2023/09/12 01:03:46;;;;;;;3.65;3.35;;;;;;;;;;5012360;28;20053;-80
2023/09/12 01:06:13;;;;;;;3.83;3.53;;;;;;;;;;5010799;28;20502;-81
2023/09/12 01:08:39;;;;;;;3.88;3.58;;;;;;;;;;4998221;28;20081;-81
2023/09/12 01:11:05;;;;;;;3.75;3.45;;;;;;;;;;4999330;28;20030;-79
2023/09/12 01:13:31;;;;;;;3.28;3.08;;;;;;;;;;4999409;28;20014;-80
2023/09/12 01:15:57;;;;;;;3.30;3.00;;;;;;;;;;4997714;28;20019;-82
2023/09/12 01:18:24;;;;;;;3.50;3.25;;;;;;;;;;4999612;28;20072;-81
2023/09/12 01:21:02;;;;;;;3.63;3.35;;;;;;;;;;5000524;28;20069;-81
2023/09/12 01:23:28;;;;;;;3.72;3.42;;;;;;;;;;4999590;28;20044;-81
2023/09/12 01:25:57;;;;;;;3.05;2.85;;;;;;;;;;4998594;28;20093;-81
2023/09/12 01:28:25;;;;;;;3.75;3.45;;;;;;;;;;4989051;28;20031;-81
2023/09/12 01:30:52;;;;;;;3.78;3.47;;;;;;;;;;4983677;28;20106;-80
2023/09/12 01:33:18;;;;;;;3.08;2.88;;;;;;;;;;4982355;28;20027;-81
2023/09/12 01:35:46;;;;;;;3.05;2.85;;;;;;;;;;4983379;28;20027;-81
2023/09/12 01:38:12;;;;;;;3.40;3.10;;;;;;;;;;4983769;28;20019;-81
2023/09/12 01:40:46;;;;;;;2.80;2.60;;;;;;;;;;4985189;28;20078;-81
2023/09/12 01:43:15;;;;;;;2.83;2.63;;;;;;;;;;4999432;28;20051;-79
2023/09/12 01:45:41;;;;;;;2.97;2.78;;;;;;;;;;4980296;28;20031;-80
2023/09/12 01:48:08;;;;;;;2.83;2.63;;;;;;;;;;4981397;28;20027;-81
2023/09/12 01:50:35;;;;;;;2.75;2.55;;;;;;;;;;4983020;28;20033;-81
2023/09/12 01:53:01;;;;;;;2.75;2.55;;;;;;;;;;4984766;28;20035;-79
2023/09/12 01:55:27;;;;;;;3.15;2.95;;;;;;;;;;4981278;28;20026;-79
2023/09/12 01:57:54;;;;;;;2.70;2.50;;;;;;;;;;4980630;28;20406;-80
2023/09/12 02:00:20;;;;;;;3.50;3.25;;;;;;;;;;4982360;28;20154;-82
2023/09/12 02:02:46;;;;;;;2.85;2.65;;;;;;;;;;4988356;28;20038;-79
2023/09/12 02:05:20;;;;;;;2.80;2.60;;;;;;;;;;4987380;28;20081;-81
2023/09/12 02:07:47;;;;;;;3.00;2.80;;;;;;;;;;4989429;28;20023;-80
2023/09/12 02:10:13;;;;;;;2.97;2.78;;;;;;;;;;4992256;28;20035;-79
2023/09/12 02:12:40;;;;;;;2.85;2.65;;;;;;;;;;5002554;28;20019;-78
2023/09/12 02:15:06;;;;;;;2.90;2.70;;;;;;;;;;4996294;28;20038;-81
2023/09/12 02:17:32;;;;;;;3.03;2.83;;;;;;;;;;4981186;28;20038;-80
2023/09/12 02:19:58;;;;;;;2.90;2.70;;;;;;;;;;4980466;28;20027;-79
2023/09/12 02:22:24;;;;;;;2.97;2.78;;;;;;;;;;4988131;28;20010;-79
2023/09/12 02:24:51;;;;;;;3.10;2.90;;;;;;;;;;4992979;28;20023;-78
2023/09/12 02:27:17;;;;;;;3.50;3.30;;;;;;;;;;4991607;28;20401;-79
2023/09/12 02:29:43;;;;;;;3.72;3.42;;;;;;;;;;4992650;28;20019;-80
2023/09/12 02:32:09;;;;;;;3.25;3.00;;;;;;;;;;4989209;28;20065;-79
2023/09/12 02:34:35;;;;;;;3.60;3.30;;;;;;;;;;5005995;28;20270;-78
2023/09/12 02:37:01;;;;;;;3.70;3.40;;;;;;;;;;5010797;28;20030;-81
2023/09/12 02:39:28;;;;;;;3.58;3.28;;;;;;;;;;5009397;28;20023;-79
2023/09/12 02:41:54;;;;;;;3.63;3.38;;;;;;;;;;5010219;28;20076;-79
2023/09/12 02:44:20;;;;;;;3.65;3.35;;;;;;;;;;5029121;28;20034;-80
2023/09/12 02:46:48;;;;;;;3.88;3.58;;;;;;;;;;5031848;28;20034;-79
2023/09/12 02:49:14;;;;;;;3.35;3.15;;;;;;;;;;5014980;28;20121;-80
2023/09/12 02:51:41;;;;;;;3.83;3.53;;;;;;;;;;5010114;28;20393;-77
2023/09/12 02:54:07;;;;;;;3.35;3.15;;;;;;;;;;5000803;28;20027;-80
2023/09/12 02:56:33;;;;;;;3.30;3.03;;;;;;;;;;4998756;28;20037;-78
2023/09/12 02:58:59;;;;;;;3.40;3.10;;;;;;;;;;4999373;28;20022;-78
2023/09/12 03:01:27;;;;;;;3.85;3.55;;;;;;;;;;5009602;28;20094;-78
2023/09/12 03:03:54;;;;;;;3.20;3.00;;;;;;;;;;5003279;28;20038;-78
2023/09/12 03:06:20;;;;;;;3.30;3.03;;;;;;;;;;4999618;28;20030;-80
2023/09/12 03:08:47;;;;;;;2.97;2.72;;;;;;;;;;5007040;28;20033;-79
2023/09/12 03:11:13;;;;;;;3.10;2.90;;;;;;;;;;5005055;28;20030;-79
2023/09/12 03:13:40;;;;;;;3.30;3.10;;;;;;;;;;5013375;28;20400;-79
2023/09/12 03:16:09;;;;;;;3.05;2.85;;;;;;;;;;5024555;28;20052;-81
2023/09/12 03:18:36;;;;;;;3.22;3.00;;;;;;;;;;5015724;28;20053;-79
2023/09/12 03:21:02;;;;;;;3.35;3.15;;;;;;;;;;4993869;28;20022;-78
2023/09/12 03:23:28;;;;;;;2.88;2.63;;;;;;;;;;5008592;28;20026;-79
2023/09/12 03:25:54;;;;;;;3.03;2.83;;;;;;;;;;5008898;28;20026;-79
2023/09/12 03:28:21;;;;;;;2.80;2.60;;;;;;;;;;5009616;28;20030;-81
2023/09/12 03:30:47;;;;;;;2.97;2.78;;;;;;;;;;5007958;28;20031;-80
2023/09/12 03:33:13;;;;;;;3.00;2.80;;;;;;;;;;5006040;28;20034;-80
2023/09/12 03:35:39;;;;;;;2.78;2.58;;;;;;;;;;5008496;28;20049;-78
2023/09/12 03:38:05;;;;;;;2.70;2.55;;;;;;;;;;5017005;28;20050;-79
2023/09/12 03:40:34;;;;;;;2.72;2.53;;;;;;;;;;5017491;28;20026;-78
2023/09/12 03:43:00;;;;;;;3.42;3.13;;;;;;;;;;5017567;28;19999;-77
2023/09/12 03:45:26;;;;;;;3.58;3.28;;;;;;;;;;5013173;28;20039;-78
2023/09/12 03:47:52;;;;;;;3.85;3.55;;;;;;;;;;5011291;28;20089;-79
2023/09/12 03:50:18;;;;;;;3.88;3.58;;;;;;;;;;5015259;28;20042;-77
2023/09/12 03:52:44;;;;;;;3.90;3.60;;;;;;;;;;5017905;28;20018;-77
2023/09/12 03:55:11;;;;;;;3.78;3.47;;;;;;;;;;5018194;28;20410;-77
2023/09/12 03:57:37;;;;;;;3.65;3.35;;;;;;;;;;5017932;28;20088;-78
2023/09/12 04:00:06;;;;;;;3.80;3.50;;;;;;;;;;5014765;28;20046;-79
2023/09/12 04:02:32;;;;;;;3.33;3.13;;;;;;;;;;5005210;28;20053;-82
2023/09/12 04:04:59;;;;;;;3.35;3.15;;;;;;;;;;4987973;28;20046;-80
2023/09/12 04:07:25;;;;;;;3.67;3.38;;;;;;;;;;4982931;28;20626;-78
2023/09/12 04:09:51;;;;;;;4.07;3.78;;;;;;;;;;4982816;28;20034;-79
2023/09/12 04:12:17;;;;;;;3.53;3.22;;;;;;;;;;4986959;28;20034;-79
2023/09/12 04:14:43;;;;;;;3.42;3.22;;;;;;;;;;4996874;28;20023;-84
2023/09/12 04:17:09;;;;;;;3.33;3.10;;;;;;;;;;4994192;28;20058;-80
2023/09/12 04:19:36;;;;;;;3.80;3.50;;;;;;;;;;4977532;28;20019;-78
2023/09/12 04:22:04;;;;;;;3.85;3.55;;;;;;;;;;4978164;28;20019;-82
2023/09/12 04:24:30;;;;;;;4.00;3.70;;;;;;;;;;4978013;28;20034;-81
2023/09/12 04:26:56;;;;;;;3.97;3.67;;;;;;;;;;4979453;28;20031;-81
2023/09/12 04:29:22;;;;;;;3.53;3.25;;;;;;;;;;5001330;28;20038;-79
2023/09/12 04:31:48;;;;;;;3.65;3.38;;;;;;;;;;4986607;28;20030;-79
2023/09/12 04:34:14;;;;;;;4.10;3.80;;;;;;;;;;4992323;28;20030;-81
2023/09/12 04:36:40;;;;;;;3.78;3.47;;;;;;;;;;4993031;28;20042;-80
2023/09/12 04:39:06;;;;;;;3.72;3.42;;;;;;;;;;4987156;28;20034;-78
2023/09/12 04:41:33;;;;;;;3.67;3.38;;;;;;;;;;5006913;28;20023;-80
2023/09/12 04:44:00;;;;;;;4.07;3.78;;;;;;;;;;5007270;28;20049;-80
2023/09/12 04:46:26;;;;;;;4.05;3.75;;;;;;;;;;5007681;28;20033;-81
2023/09/12 04:48:52;;;;;;;3.75;3.45;;;;;;;;;;5008592;28;20026;-80
2023/09/12 04:51:18;;;;;;;3.65;3.35;;;;;;;;;;5007462;28;20049;-80
2023/09/12 04:53:44;;;;;;;3.70;3.40;;;;;;;;;;4987817;28;20030;-81
2023/09/12 04:56:11;;;;;;;3.88;3.58;;;;;;;;;;4987483;28;20027;-80
2023/09/12 04:58:37;;;;;;;3.70;3.40;;;;;;;;;;4987538;28;20019;-81
2023/09/12 05:01:03;;;;;;;3.30;3.05;;;;;;;;;;4987548;28;20037;-80
2023/09/12 05:03:29;;;;;;;3.72;3.42;;;;;;;;;;4991717;28;20027;-81
2023/09/12 05:05:55;;;;;;;3.58;3.28;;;;;;;;;;4992663;28;20050;-81
2023/09/12 05:08:22;;;;;;;3.63;3.33;;;;;;;;;;4991688;28;20061;-78
2023/09/12 05:10:49;;;;;;;3.65;3.35;;;;;;;;;;4992479;28;20034;-80
2023/09/12 05:13:15;;;;;;;3.53;3.33;;;;;;;;;;5002400;28;20026;-80
2023/09/12 05:15:42;;;;;;;4.05;3.70;;;;;;;;;;5008193;28;20027;-81
2023/09/12 05:18:08;;;;;;;3.80;3.50;;;;;;;;;;4996096;28;20046;-81
2023/09/12 05:20:34;;;;;;;3.97;3.67;;;;;;;;;;4995763;28;20054;-80
2023/09/12 05:23:00;;;;;;;3.88;3.50;;;;;;;;;;4995387;28;20085;-79
2023/09/12 05:25:27;;;;;;;3.47;3.20;;;;;;;;;;4992464;28;20023;-80
2023/09/12 05:27:53;;;;;;;3.90;3.60;;;;;;;;;;5002851;28;20057;-79
2023/09/12 05:30:19;;;;;;;4.18;3.88;;;;;;;;;;5003434;28;20039;-80
2023/09/12 05:32:45;;;;;;;3.97;3.67;;;;;;;;;;5004967;28;20038;-80
2023/09/12 05:35:11;;;;;;;4.30;4.00;;;;;;;;;;4997385;28;20038;-80
2023/09/12 05:37:38;;;;;;;3.47;3.22;;;;;;;;;;5000027;28;20034;-81
2023/09/12 05:40:04;;;;;;;3.25;3.05;;;;;;;;;;5010279;28;20038;-80
2023/09/12 05:42:30;;;;;;;3.80;3.50;;;;;;;;;;5023231;28;20030;-80
2023/09/12 05:44:56;;;;;;;4.45;4.05;;;;;;;;;;5006949;28;20099;-82
2023/09/12 05:47:23;;;;;;;4.55;4.15;;;;;;;;;;5006420;28;20325;-80
2023/09/12 05:49:49;;;;;;;5.50;4.43;;;;;;;;;;5011755;28;20037;-81
2023/09/12 05:52:15;;;;;;;4.78;4.35;;;;;;;;;;5011607;28;20042;-80
2023/09/12 05:54:41;;;;;;;4.82;4.43;;;;;;;;;;5012886;28;20057;-80
2023/09/12 05:57:08;;;;;;;5.03;4.47;;;;;;;;;;5012264;28;20034;-82
2023/09/12 05:59:38;;;;;;;5.03;4.55;;;;;;;;;;5009319;28;20027;-79
2023/09/12 06:02:09;;;;;;;4.65;4.25;;;;;;;;;;4999473;28;20074;-80
2023/09/12 06:04:35;;;;;;;4.55;4.18;;;;;;;;;;5013353;28;20018;-78
2023/09/12 06:07:02;;;;;;;4.47;4.10;;;;;;;;;;5003850;28;20038;-79
2023/09/12 06:09:29;;;;;;;5.55;5.05;;;;;;;;;;4998889;28;20053;-80
2023/09/12 06:11:55;;;;;;;5.45;4.95;;;;;;;;;;5010340;28;20021;-81
2023/09/12 06:14:21;;;;;;;5.82;5.28;;;;;;;;;;4998316;28;20039;-80
2023/09/12 06:16:47;;;;;;;5.10;4.70;;;;;;;;;;4989262;28;20616;-80
2023/09/12 06:19:19;;;;;;;5.80;5.30;;;;;;;;;;5000829;28;20041;-81
2023/09/12 06:21:45;;;;;;;5.72;4.70;;;;;;;;;;5009060;28;20029;-80
2023/09/12 06:24:12;;;;;;;5.95;5.45;;;;;;;;;;5009316;28;20029;-80
2023/09/12 06:26:39;;;;;;;5.13;4.72;;;;;;;;;;5010928;28;20140;-81
2023/09/12 06:29:06;;;;;;;5.18;4.68;;;;;;;;;;5004225;28;20035;-82
2023/09/12 06:31:32;;;;;;;4.53;4.13;;;;;;;;;;4993372;28;20033;-80
2023/09/12 06:33:58;;;;;;;5.38;4.97;;;;;;;;;;4989780;28;20182;-81
2023/09/12 06:36:30;;;;;;;4.85;4.45;;;;;;;;;;5001900;28;20023;-81
2023/09/12 06:38:57;;;;;;;4.60;4.20;;;;;;;;;;4997112;28;20007;-81
2023/09/12 06:41:23;;;;;;;4.65;4.25;;;;;;;;;;5007536;28;20057;-81
2023/09/12 06:43:49;;;;;;;4.32;3.95;;;;;;;;;;5016534;28;20058;-79
2023/09/12 06:46:19;;;;;;;4.78;4.38;;;;;;;;;;5013349;28;20029;-80
2023/09/12 06:48:45;;;;;;;4.25;3.95;;;;;;;;;;5007715;28;20022;-81
2023/09/12 06:51:11;;;;;;;5.05;4.65;;;;;;;;;;4991212;28;20102;-80
2023/09/12 06:53:37;;;;;;;4.05;3.70;;;;;;;;;;4992850;28;20027;-81
2023/09/12 06:56:04;;;;;;;4.45;4.05;;;;;;;;;;5011161;28;20022;-81
2023/09/12 06:58:30;;;;;;;4.60;4.20;;;;;;;;;;5008595;28;20085;-80
2023/09/12 07:00:56;;;;;;;4.43;4.03;;;;;;;;;;5008476;28;20098;-81
2023/09/12 07:03:22;;;;;;;4.03;3.72;;;;;;;;;;5008494;28;20095;-80
2023/09/12 07:05:52;;;;;;;3.45;3.20;;;;;;;;;;5008264;28;20034;-79
2023/09/12 07:08:18;;;;;;;4.18;3.88;;;;;;;;;;5007048;28;20141;-79
2023/09/12 07:10:48;;;;;;;4.50;4.10;;;;;;;;;;5007674;28;20026;-80
2023/09/12 07:13:14;;;;;;;4.22;3.92;;;;;;;;;;5007434;28;20203;-79
2023/09/12 07:15:40;;;;;;;5.13;4.65;;;;;;;;;;5010125;28;20065;-81
2023/09/12 07:18:06;;;;;;;4.40;4.10;;;;;;;;;;4995632;28;20027;-80
2023/09/12 07:20:35;;;;;;;5.20;4.80;;;;;;;;;;4993352;28;20049;-80
2023/09/12 07:23:02;;;;;;;5.22;4.10;;;;;;;;;;5005855;28;20023;-80
2023/09/12 07:25:28;;;;;;;4.65;4.20;;;;;;;;;;4994144;28;20027;-81
2023/09/12 07:27:54;;;;;;;4.90;4.50;;;;;;;;;;4995091;28;20030;-80
2023/09/12 07:30:20;;;;;;;4.78;4.43;;;;;;;;;;5005705;28;20046;-81
2023/09/12 07:32:46;;;;;;;4.90;4.50;;;;;;;;;;5008504;28;20030;-79
2023/09/12 07:35:12;;;;;;;4.80;4.40;;;;;;;;;;4992714;28;20106;-82
2023/09/12 07:37:38;;;;;;;4.68;4.28;;;;;;;;;;4990169;28;20027;-81
2023/09/12 07:40:09;;;;;;;4.90;4.50;;;;;;;;;;4997853;28;20084;-82
2023/09/12 07:42:36;;;;;;;5.10;4.63;;;;;;;;;;5010880;28;20021;-81
2023/09/12 07:45:05;;;;;;;4.93;4.53;;;;;;;;;;4999574;28;20035;-79
2023/09/12 07:47:32;;;;;;;4.72;4.32;;;;;;;;;;4991459;28;20039;-80
2023/09/12 07:50:00;;;;;;;4.60;4.20;;;;;;;;;;5007383;28;20030;-79
2023/09/12 07:52:26;;;;;;;4.40;4.03;;;;;;;;;;4999404;28;20095;-80
2023/09/12 07:54:56;;;;;;;5.35;4.95;;;;;;;;;;4983049;28;20022;-82
2023/09/12 07:57:23;;;;;;;4.63;4.32;;;;;;;;;;4993726;28;20113;-82
2023/09/12 07:59:49;;;;;;;4.75;4.43;;;;;;;;;;5010204;28;20030;-81
2023/09/12 08:02:15;;;;;;;4.82;4.43;;;;;;;;;;5009927;28;20524;-81
2023/09/12 08:04:41;;;;;;;4.75;4.35;;;;;;;;;;4995367;28;20049;-81
2023/09/12 08:07:07;;;;;;;5.95;4.60;;;;;;;;;;5009339;28;20084;-80
2023/09/12 08:09:50;;;;;;;5.03;4.63;;;;;;;;;;4991603;28;20023;-80
2023/09/12 08:12:16;;;;;;;5.90;5.28;;;;;;;;;;5009873;28;20010;-80
2023/09/12 08:14:42;;;;;;;5.95;5.45;;;;;;;;;;5024913;28;20029;-79
2023/09/12 08:17:09;;;;;;;5.70;5.20;;;;;;;;;;5023107;28;20060;-78
2023/09/12 08:19:35;;;;;;;6.63;6.10;;;;;;;;;;5023099;28;20022;-80
2023/09/12 08:22:01;;;;;;;5.35;4.95;;;;;;;;;;5022698;28;20021;-79
2023/09/12 08:24:27;;;;;;;5.85;5.13;;;;;;;;;;5021159;28;20119;-80
2023/09/12 08:26:54;;;;;;;5.00;4.60;;;;;;;;;;5024085;28;20053;-79
2023/09/12 08:29:20;;;;;;;5.30;4.82;;;;;;;;;;5023195;28;20034;-78
2023/09/12 08:31:49;;;;;;;5.47;5.05;;;;;;;;;;5023075;28;20076;-79
2023/09/12 08:34:15;;;;;;;5.55;4.78;;;;;;;;;;5018498;28;20345;-77
2023/09/12 08:36:41;;;;;;;5.43;5.03;;;;;;;;;;4997927;28;20027;-78
2023/09/12 08:39:12;;;;;;;4.90;4.47;;;;;;;;;;4988774;28;20026;-80
2023/09/12 08:41:38;;;;;;;5.18;4.85;;;;;;;;;;5017746;28;20052;-79
2023/09/12 08:44:08;;;;;;;4.93;4.53;;;;;;;;;;5029177;28;20093;-79
2023/09/12 08:46:34;;;;;;;5.10;4.70;;;;;;;;;;5026065;28;20034;-77
2023/09/12 08:49:00;;;;;;;4.57;4.18;;;;;;;;;;5025592;28;20022;-77
2023/09/12 08:51:27;;;;;;;4.75;4.35;;;;;;;;;;5023971;28;20041;-78
2023/09/12 08:53:53;;;;;;;4.35;4.05;;;;;;;;;;5024773;28;20018;-78
2023/09/12 08:56:19;;;;;;;4.35;4.05;;;;;;;;;;5023910;28;20026;-78
2023/09/12 08:58:47;;;;;;;4.13;3.83;;;;;;;;;;5014195;28;20034;-77
2023/09/12 09:01:14;;;;;;;4.72;4.32;;;;;;;;;;5005630;28;20113;-78
2023/09/12 09:03:45;;;;;;;4.95;4.55;;;;;;;;;;5007519;28;20034;-77
2023/09/12 09:06:11;;;;;;;4.47;4.17;;;;;;;;;;5007019;28;20029;-77
2023/09/12 09:08:38;;;;;;;4.45;4.15;;;;;;;;;;5007591;28;20046;-77
2023/09/12 09:11:06;;;;;;;5.75;5.15;;;;;;;;;;5007940;28;20088;-80
2023/09/12 09:13:32;;;;;;;5.15;4.68;;;;;;;;;;5008313;28;20026;-78
2023/09/12 09:16:19;;;;;;;4.95;4.55;;;;;;;;;;5007162;28;20058;-78
2023/09/12 09:18:57;;;;;;;5.50;5.07;;;;;;;;;;5006940;28;20046;-78
2023/09/12 09:21:25;;;;;;;5.00;4.60;;;;;;;;;;4986924;28;20023;-78
2023/09/12 09:23:51;;;;;;;4.63;4.32;;;;;;;;;;4993542;28;20021;-78
2023/09/12 09:26:18;;;;;;;5.38;4.97;;;;;;;;;;5005318;28;20027;-77
2023/09/12 09:28:44;;;;;;;5.60;5.20;;;;;;;;;;4988516;28;20015;-77
2023/09/12 09:31:13;;;;;;;5.68;5.20;;;;;;;;;;4987910;28;20083;-78
2023/09/12 09:33:40;;;;;;;4.57;4.28;;;;;;;;;;4988737;28;20019;-77
2023/09/12 09:36:07;;;;;;;5.63;5.13;;;;;;;;;;4987788;28;20371;-78
2023/09/12 09:38:36;;;;;;;5.53;5.13;;;;;;;;;;4988028;28;20037;-78
2023/09/12 09:41:06;;;;;;;5.38;4.97;;;;;;;;;;4995541;28;20037;-76
2023/09/12 09:43:33;;;;;;;5.95;5.55;;;;;;;;;;5018118;28;20076;-79
2023/09/12 09:45:59;;;;;;;5.28;4.88;;;;;;;;;;5027694;28;20373;-79
2023/09/12 09:48:31;;;;;;;5.82;5.38;;;;;;;;;;5027686;28;20061;-78
2023/09/12 09:51:02;;;;;;;5.40;5.00;;;;;;;;;;4992721;28;20079;-78
2023/09/12 09:53:28;;;;;;;4.72;4.40;;;;;;;;;;5008929;28;20552;-78
2023/09/12 09:56:08;;;;;;;5.20;4.80;;;;;;;;;;5007204;28;20101;-80
2023/09/12 09:58:35;;;;;;;4.88;4.50;;;;;;;;;;5007604;28;20456;-79
2023/09/12 10:01:03;;;;;;;5.47;5.07;;;;;;;;;;5003207;28;20030;-79
2023/09/12 10:03:31;;;;;;;5.63;5.22;;;;;;;;;;4988602;28;20073;-79
2023/09/12 10:05:58;;;;;;;5.13;4.72;;;;;;;;;;4987933;28;20031;-79
2023/09/12 10:08:24;;;;;;;5.07;4.72;;;;;;;;;;4993787;28;20478;-77
2023/09/12 10:10:52;;;;;;;5.35;4.95;;;;;;;;;;5007516;28;20548;-78
2023/09/12 10:13:19;;;;;;;5.43;5.03;;;;;;;;;;5017544;28;20109;-78
2023/09/12 10:15:46;;;;;;;5.00;4.60;;;;;;;;;;5008818;28;20524;-79
2023/09/12 10:18:15;;;;;;;5.22;4.82;;;;;;;;;;5007826;28;20054;-78
2023/09/12 10:20:53;;;;;;;5.35;4.97;;;;;;;;;;4999929;28;20026;-77
2023/09/12 10:23:22;;;;;;;5.30;4.90;;;;;;;;;;4987596;28;20092;-78
2023/09/12 10:25:49;;;;;;;4.97;4.57;;;;;;;;;;4986453;28;20026;-78
2023/09/12 10:28:16;;;;;;;4.97;4.57;;;;;;;;;;4985599;28;20034;-78
2023/09/12 10:30:42;;;;;;;5.50;5.10;;;;;;;;;;4986022;28;20026;-78
2023/09/12 10:33:08;;;;;;;5.30;4.90;;;;;;;;;;4986171;28;20099;-80
2023/09/12 10:35:35;;;;;;;5.50;5.10;;;;;;;;;;4987145;28;20041;-79
2023/09/12 10:38:03;;;;;;;5.88;5.47;;;;;;;;;;4987174;28;20034;-79
2023/09/12 10:40:32;;;;;;;5.95;5.35;;;;;;;;;;4984320;28;20114;-80
2023/09/12 10:42:58;;;;;;;6.82;6.22;;;;;;;;;;4993278;28;20029;-80
2023/09/12 10:45:25;;;;;;;6.32;5.80;;;;;;;;;;4992604;28;20027;-80
2023/09/12 10:47:51;;;;;;;6.38;5.88;;;;;;;;;;4999751;28;20034;-80
2023/09/12 10:50:17;;;;;;;5.70;5.30;;;;;;;;;;4985724;28;20035;-80
2023/09/12 10:52:43;;;;;;;5.65;5.20;;;;;;;;;;5001878;28;20077;-80
2023/09/12 10:55:17;;;;;;;5.20;4.80;;;;;;;;;;4996548;28;20493;-80
2023/09/12 10:58:02;;;;;;;5.50;5.10;;;;;;;;;;4986410;28;20105;-79
2023/09/12 11:00:32;;;;;;;5.00;4.65;;;;;;;;;;5003135;28;20030;-82
2023/09/12 11:03:18;;;;;;;5.07;4.68;;;;;;;;;;5004376;28;20033;-80
2023/09/12 11:05:55;;;;;;;4.70;4.40;;;;;;;;;;5001793;28;20030;-82
2023/09/12 11:08:22;;;;;;;5.28;4.88;;;;;;;;;;5002592;28;20030;-79
2023/09/12 11:11:07;;;;;;;4.65;4.25;;;;;;;;;;5002603;28;20139;-83
2023/09/12 11:13:40;;;;;;;6.03;5.53;;;;;;;;;;5002953;28;20033;-79
2023/09/12 11:16:13;;;;;;;5.72;5.32;;;;;;;;;;5002391;28;20030;-79
2023/09/12 11:19:02;;;;;;;5.28;4.95;;;;;;;;;;5000718;28;20108;-78
2023/09/12 11:21:38;;;;;;;5.82;5.43;;;;;;;;;;4994644;28;20038;-78
2023/09/12 11:24:04;;;;;;;5.93;5.53;;;;;;;;;;5002439;28;20026;-78
2023/09/12 11:26:30;;;;;;;6.13;5.65;;;;;;;;;;5001496;28;20022;-78
2023/09/12 11:28:56;;;;;;;5.57;5.18;;;;;;;;;;4982437;28;20113;-80
2023/09/12 11:31:28;;;;;;;5.43;5.03;;;;;;;;;;4996147;28;20062;-78
2023/09/12 11:33:55;;;;;;;5.60;5.10;;;;;;;;;;4985371;28;20117;-80
2023/09/12 11:36:21;;;;;;;5.15;4.75;;;;;;;;;;4981918;28;20125;-81
2023/09/12 11:38:51;;;;;;;5.18;4.78;;;;;;;;;;4984113;28;20386;-81
2023/09/12 11:41:36;;;;;;;5.40;4.78;;;;;;;;;;4994206;28;20027;-78
2023/09/12 11:44:04;;;;;;;4.63;4.32;;;;;;;;;;5000407;28;20390;-80
2023/09/12 11:46:30;;;;;;;5.10;4.70;;;;;;;;;;5001623;28;20433;-80
2023/09/12 11:48:57;;;;;;;5.50;5.10;;;;;;;;;;4988116;28;20081;-80
2023/09/12 11:51:26;;;;;;;4.97;4.53;;;;;;;;;;4982316;28;20027;-81
2023/09/12 11:53:55;;;;;;;5.90;5.30;;;;;;;;;;4981083;28;20023;-79
2023/09/12 11:56:21;;;;;;;5.72;5.32;;;;;;;;;;4981043;28;20394;-80
2023/09/12 11:58:47;;;;;;;5.60;5.20;;;;;;;;;;4991734;28;20027;-80
2023/09/12 12:01:14;;;;;;;5.30;4.90;;;;;;;;;;5001543;28;20037;-80
2023/09/12 12:03:40;;;;;;;5.95;5.55;;;;;;;;;;5001287;28;20051;-77
2023/09/12 12:06:07;;;;;;;4.90;4.50;;;;;;;;;;4996888;28;20027;-79
2023/09/12 12:08:33;;;;;;;5.57;5.18;;;;;;;;;;4983582;28;20070;-80
2023/09/12 12:11:00;;;;;;;5.38;4.88;;;;;;;;;;4999885;28;20030;-79
2023/09/12 12:13:27;;;;;;;5.35;4.95;;;;;;;;;;5000890;28;20130;-80
2023/09/12 12:15:53;;;;;;;5.05;4.75;;;;;;;;;;5000069;28;20040;-81
2023/09/12 12:18:19;;;;;;;5.25;4.85;;;;;;;;;;5000379;28;20019;-81
2023/09/12 12:20:46;;;;;;;5.00;4.60;;;;;;;;;;5002018;28;20027;-79
2023/09/12 12:23:12;;;;;;;4.85;4.55;;;;;;;;;;4997900;28;20383;-81
2023/09/12 12:25:38;;;;;;;5.20;4.80;;;;;;;;;;4981558;28;20026;-79
2023/09/12 12:28:04;;;;;;;5.03;4.63;;;;;;;;;;4983284;28;20524;-77
2023/09/12 12:30:34;;;;;;;5.07;4.68;;;;;;;;;;4992990;28;20030;-81
2023/09/12 12:33:02;;;;;;;4.90;4.60;;;;;;;;;;5007703;28;20104;-77
2023/09/12 12:35:29;;;;;;;5.47;5.07;;;;;;;;;;5006677;28;20053;-77
2023/09/12 12:37:56;;;;;;;4.75;4.45;;;;;;;;;;5010370;28;20034;-78
2023/09/12 12:40:22;;;;;;;4.72;4.43;;;;;;;;;;5010105;28;20101;-78
2023/09/12 12:42:49;;;;;;;4.40;4.10;;;;;;;;;;5002364;28;20038;-80
2023/09/12 12:45:16;;;;;;;4.80;4.50;;;;;;;;;;5003421;28;20086;-80
2023/09/12 12:47:44;;;;;;;4.30;4.00;;;;;;;;;;5001910;28;20030;-80
2023/09/12 12:50:14;;;;;;;4.32;4.03;;;;;;;;;;4991217;28;20034;-82
2023/09/12 12:52:42;;;;;;;4.90;4.53;;;;;;;;;;4999805;28;20034;-80
2023/09/12 12:55:11;;;;;;;5.00;4.60;;;;;;;;;;4995088;28;20065;-83
2023/09/12 12:57:42;;;;;;;5.38;5.00;;;;;;;;;;4989635;28;20141;-79
2023/09/12 13:00:10;;;;;;;5.00;4.60;;;;;;;;;;4996796;28;20393;-79
2023/09/12 13:02:38;;;;;;;4.63;4.32;;;;;;;;;;4990203;28;20041;-79
2023/09/12 13:05:07;;;;;;;4.75;4.45;;;;;;;;;;4990021;28;20579;-79
2023/09/12 13:07:37;;;;;;;4.63;4.32;;;;;;;;;;4991040;28;20031;-79
2023/09/12 13:10:04;;;;;;;4.50;4.20;;;;;;;;;;5002702;28;20098;-79
2023/09/12 13:12:30;;;;;;;5.30;4.90;;;;;;;;;;5003298;28;20077;-80
2023/09/12 13:14:57;;;;;;;6.40;5.90;;;;;;;;;;5005499;28;20022;-80
2023/09/12 13:17:24;;;;;;;6.05;5.55;;;;;;;;;;4987567;28;20062;-79
2023/09/12 13:19:50;;;;;;;5.85;5.45;;;;;;;;;;4984174;28;20031;-78
2023/09/12 13:22:16;;;;;;;5.70;5.20;;;;;;;;;;4984648;28;20023;-78
2023/09/12 13:24:42;;;;;;;6.20;5.70;;;;;;;;;;4986906;28;20030;-77
2023/09/12 13:27:08;;;;;;;5.65;5.25;;;;;;;;;;4997190;28;20034;-79
2023/09/12 13:29:34;;;;;;;5.10;4.70;;;;;;;;;;5010340;28;20031;-78
2023/09/12 13:32:00;;;;;;;5.05;4.70;;;;;;;;;;4999229;28;20039;-81
2023/09/12 13:34:26;;;;;;;5.00;4.70;;;;;;;;;;4999328;28;20027;-78
2023/09/12 13:36:52;;;;;;;5.43;4.93;;;;;;;;;;5000283;28;20106;-82
2023/09/12 13:39:30;;;;;;;6.30;5.70;;;;;;;;;;5000671;28;20030;-82
2023/09/12 13:41:57;;;;;;;5.80;5.40;;;;;;;;;;4992533;28;20030;-82
2023/09/12 13:44:23;;;;;;;5.38;4.93;;;;;;;;;;4987567;28;20023;-80
2023/09/12 13:46:50;;;;;;;5.43;4.97;;;;;;;;;;4988291;28;20037;-81
2023/09/12 13:49:16;;;;;;;5.88;5.47;;;;;;;;;;4987470;28;20105;-80
2023/09/12 13:51:42;;;;;;;6.78;6.20;;;;;;;;;;4986620;28;20026;-80
2023/09/12 13:54:14;;;;;;;6.35;5.85;;;;;;;;;;4989554;28;20541;-81
2023/09/12 13:56:40;;;;;;;6.50;6.00;;;;;;;;;;4992235;28;20615;-80
2023/09/12 13:59:06;;;;;;;5.95;5.45;;;;;;;;;;4992270;28;20038;-80
2023/09/12 14:01:32;;;;;;;6.40;5.88;;;;;;;;;;4984213;28;20098;-81
2023/09/12 14:03:58;;;;;;;5.78;5.38;;;;;;;;;;4985613;28;20038;-79
2023/09/12 14:06:25;;;;;;;6.32;5.72;;;;;;;;;;4995881;28;20038;-81
2023/09/12 14:08:52;;;;;;;6.40;5.90;;;;;;;;;;4997503;28;20027;-81
2023/09/12 14:11:18;;;;;;;5.57;5.18;;;;;;;;;;5000450;28;20025;-81
2023/09/12 14:13:44;;;;;;;5.70;5.20;;;;;;;;;;5002841;28;20019;-81
2023/09/12 14:16:10;;;;;;;6.15;5.75;;;;;;;;;;4991330;28;20042;-82
2023/09/12 14:18:37;;;;;;;5.35;4.95;;;;;;;;;;4996069;28;20022;-82
2023/09/12 14:21:03;;;;;;;5.13;4.72;;;;;;;;;;4999142;28;20137;-82
2023/09/12 14:23:29;;;;;;;5.63;5.22;;;;;;;;;;4986415;28;20038;-82
2023/09/12 14:25:55;;;;;;;6.18;5.68;;;;;;;;;;4991892;28;20048;-80
2023/09/12 14:28:21;;;;;;;6.30;5.80;;;;;;;;;;5004439;28;20026;-80
2023/09/12 14:30:49;;;;;;;6.47;5.65;;;;;;;;;;4997047;28;20422;-79
2023/09/12 14:33:18;;;;;;;7.13;6.53;;;;;;;;;;4986924;28;20097;-80
2023/09/12 14:35:44;;;;;;;6.60;6.10;;;;;;;;;;5003236;28;20031;-81
2023/09/12 14:38:11;;;;;;;6.63;6.13;;;;;;;;;;5009087;28;20077;-79
2023/09/12 14:40:37;;;;;;;6.90;6.28;;;;;;;;;;4992182;28;20361;-79
2023/09/12 14:43:04;;;;;;;6.25;5.85;;;;;;;;;;5006308;28;20036;-80